Portada
METAR-TAF:

METAR-TAF

Aeroports :

Ipoh, Malàisia

latitud: 04-34-09N, longitud: 101-05-35E, altitud: 40 m

Observació

L'informe es va fer fa 31 minuts, a les 01:00 UTC
Vent 4 kt del Sud
Temperatura 26°C
Humitat 89%
Pressió 1012 hPa
Visibilitat 10 km o més
Escasses núvols a una alçada de 1900 ft
Núvols disperses a una alçada de 2600 ft

METAR: WMKI 220100Z 19004KT 9999 FEW019 SCT026 26/24 Q1012

Hora: 09:31 (01:31 UTC)

Pronòstic

L'informe es va fer fa 2 hores i 31 minuts, a les 23:00 UTC
Pronòstic vàlid del 22 a les 00 UTC al 23 a les 00 UTC
Vent 3 kt amb direcció variable
Visibilitat: 8000 m
Escasses núvols a una alçada de 2000 ft
Temporalment
l' 22 a les 05 UTC al 22 a les 09 UTC
Visibilitat: 5000 m
Escasses núvols a una alçada de 1700 ft, Cumulonimbus.
Núvols disperses a una alçada de 2200 ft
tempesta, pluja

TAF: WMKI 212300Z 2200/2300 VRB03KT 8000 FEW020 TEMPO 2205/2209 5000 TSRA FEW017CB SCT022

Observacions i pronòstics meteorològics de més de 4000 aeroports (METAR i TAF).

Les estacions disponibles són els punts grocs i vermells al mapa.

Posi el ratolí al punt desitjat per veure el nom de l'estació.

Feu clic per veure les observacions i els pronòstics meteorològics.

Per canviar el mapa: feu clic els botons verds amb una creu de color negre per apropar; al botó verd amb un guió per allunyar la imatge; o en les fletxes verdes per a mapes adjacents.


METAR-TAF: